createdAt,value
2023-05-01T00:00:56.918Z,94528.00
2023-05-01T00:01:56.951Z,94528.00
2023-05-01T00:02:57.045Z,94524.00
2023-05-01T00:03:57.192Z,94526.00
2023-05-01T00:04:57.070Z,94524.00
2023-05-01T00:05:57.012Z,94524.00
2023-05-01T00:06:56.996Z,94524.00
2023-05-01T00:07:57.004Z,94520.00
2023-05-01T00:08:56.984Z,94518.00
2023-05-01T00:09:57.328Z,94518.00
2023-05-01T00:10:57.008Z,94518.00
2023-05-01T00:11:57.068Z,94520.00
2023-05-01T00:12:57.041Z,94520.00
2023-05-01T00:13:57.053Z,94522.00
2023-05-01T00:14:57.053Z,94520.00
2023-05-01T00:15:57.105Z,94520.00
2023-05-01T00:16:57.193Z,94518.00
2023-05-01T00:17:57.239Z,94516.00
2023-05-01T00:18:57.137Z,94516.00
2023-05-01T00:19:57.544Z,94518.00
2023-05-01T00:20:57.187Z,94518.00
2023-05-01T00:21:57.159Z,94514.00
2023-05-01T00:22:57.173Z,94516.00
2023-05-01T00:23:57.140Z,94514.00
2023-05-01T00:24:57.226Z,94516.00
2023-05-01T00:25:57.158Z,94512.00
2023-05-01T00:26:57.153Z,94512.00
2023-05-01T00:27:57.168Z,94514.00
2023-05-01T00:28:57.210Z,94514.00
2023-05-01T00:29:57.465Z,94510.00
2023-05-01T00:30:57.188Z,94506.00
2023-05-01T00:31:57.239Z,94504.00
2023-05-01T00:32:57.259Z,94506.00
2023-05-01T00:33:57.207Z,94508.00
2023-05-01T00:34:57.216Z,94506.00
2023-05-01T00:35:57.211Z,94508.00
2023-05-01T00:36:57.682Z,94508.00
2023-05-01T00:37:57.229Z,94508.00
2023-05-01T00:38:57.253Z,94508.00
2023-05-01T00:39:57.600Z,94506.00
2023-05-01T00:40:57.270Z,94508.00
2023-05-01T00:41:57.253Z,94504.00
2023-05-01T00:42:57.244Z,94502.00
2023-05-01T00:43:57.276Z,94504.00
2023-05-01T00:44:57.230Z,94506.00
2023-05-01T00:45:57.257Z,94504.00
2023-05-01T00:46:57.275Z,94506.00
2023-05-01T00:47:57.254Z,94506.00
2023-05-01T00:48:57.278Z,94508.00
2023-05-01T00:49:57.489Z,94506.00
2023-05-01T00:50:57.225Z,94504.00
2023-05-01T00:51:57.224Z,94508.00
2023-05-01T00:52:57.222Z,94506.00
2023-05-01T00:53:57.243Z,94506.00
2023-05-01T00:54:57.258Z,94504.00
2023-05-01T00:55:57.253Z,94506.00
2023-05-01T00:56:57.236Z,94500.00
2023-05-01T00:57:57.224Z,94498.00
2023-05-01T00:58:57.242Z,94500.00
2023-05-01T00:59:57.475Z,94500.00
2023-05-01T01:00:57.322Z,94500.00
2023-05-01T01:01:57.301Z,94498.00
2023-05-01T01:02:57.292Z,94498.00
2023-05-01T01:03:57.350Z,94496.00
2023-05-01T01:04:57.357Z,94498.00
2023-05-01T01:05:57.345Z,94498.00
2023-05-01T01:06:57.290Z,94500.00
2023-05-01T01:07:57.301Z,94502.00
2023-05-01T01:08:57.268Z,94498.00
2023-05-01T01:09:57.542Z,94498.00
2023-05-01T01:10:57.719Z,94496.00
2023-05-01T01:11:57.283Z,94496.00
2023-05-01T01:12:57.297Z,94496.00
2023-05-01T01:13:57.319Z,94496.00
2023-05-01T01:14:57.350Z,94494.00
2023-05-01T01:15:57.366Z,94494.00
2023-05-01T01:16:57.445Z,94494.00
2023-05-01T01:17:57.451Z,94492.00
2023-05-01T01:18:57.362Z,94492.00
2023-05-01T01:19:57.658Z,94492.00
2023-05-01T01:20:57.385Z,94492.00
2023-05-01T01:21:57.396Z,94490.00
2023-05-01T01:22:57.392Z,94490.00
2023-05-01T01:23:57.393Z,94488.00
2023-05-01T01:24:57.440Z,94490.00
2023-05-01T01:25:57.436Z,94488.00
2023-05-01T01:26:57.404Z,94486.00
2023-05-01T01:27:57.415Z,94484.00
2023-05-01T01:28:57.438Z,94484.00
2023-05-01T01:29:57.700Z,94483.00
2023-05-01T01:30:57.459Z,94484.00
2023-05-01T01:31:57.437Z,94483.00
2023-05-01T01:32:57.430Z,94483.00
2023-05-01T01:33:57.435Z,94483.00
2023-05-01T01:34:57.402Z,94484.00
2023-05-01T01:35:57.428Z,94483.00
2023-05-01T01:36:57.436Z,94483.00
2023-05-01T01:37:57.507Z,94481.00
2023-05-01T01:38:57.418Z,94481.00
2023-05-01T01:39:57.652Z,94481.00
2023-05-01T01:40:57.440Z,94481.00
2023-05-01T01:41:57.421Z,94481.00
2023-05-01T01:42:57.407Z,94483.00
2023-05-01T01:43:57.397Z,94484.00
2023-05-01T01:44:57.398Z,94481.00
2023-05-01T01:45:57.439Z,94484.00
2023-05-01T01:46:57.403Z,94479.00
2023-05-01T01:47:57.468Z,94477.00
2023-05-01T01:48:57.414Z,94475.00
2023-05-01T01:49:57.553Z,94479.00
2023-05-01T01:50:57.444Z,94477.00
2023-05-01T01:51:57.417Z,94477.00
2023-05-01T01:52:57.418Z,94477.00
2023-05-01T01:53:57.400Z,94475.00
2023-05-01T01:54:57.390Z,94475.00
2023-05-01T01:55:57.458Z,94475.00
2023-05-01T01:56:57.405Z,94473.00
2023-05-01T01:57:57.418Z,94473.00
2023-05-01T01:58:57.393Z,94473.00
2023-05-01T01:59:57.677Z,94475.00
2023-05-01T02:00:57.413Z,94473.00
2023-05-01T02:01:57.542Z,94473.00
2023-05-01T02:02:57.522Z,94471.00
2023-05-01T02:03:57.465Z,94471.00
2023-05-01T02:04:57.466Z,94473.00
2023-05-01T02:05:57.472Z,94469.00
2023-05-01T02:06:57.477Z,94469.00
2023-05-01T02:07:57.444Z,94467.00
2023-05-01T02:08:57.451Z,94465.00
2023-05-01T02:09:57.639Z,94467.00
2023-05-01T02:10:58.801Z,94469.00
2023-05-01T02:11:57.504Z,94467.00
2023-05-01T02:12:57.451Z,94465.00
2023-05-01T02:13:57.426Z,94467.00
2023-05-01T02:14:57.458Z,94465.00
2023-05-01T02:15:57.450Z,94467.00
2023-05-01T02:16:57.474Z,94465.00
2023-05-01T02:17:57.501Z,94463.00
2023-05-01T02:18:57.452Z,94461.00
2023-05-01T02:19:57.642Z,94461.00
2023-05-01T02:20:57.428Z,94459.00
2023-05-01T02:21:57.414Z,94457.00
2023-05-01T02:22:57.414Z,94459.00
2023-05-01T02:23:57.393Z,94459.00
2023-05-01T02:24:57.460Z,94457.00
2023-05-01T02:25:57.430Z,94457.00
2023-05-01T02:26:57.400Z,94455.00
2023-05-01T02:27:57.438Z,94455.00
2023-05-01T02:28:57.371Z,94457.00
2023-05-01T02:29:57.608Z,94455.00
2023-05-01T02:30:57.442Z,94455.00
2023-05-01T02:31:57.533Z,94453.00
2023-05-01T02:32:57.500Z,94455.00
2023-05-01T02:33:57.402Z,94455.00
2023-05-01T02:34:57.438Z,94453.00
2023-05-01T02:35:57.561Z,94451.00
2023-05-01T02:36:57.430Z,94449.00
2023-05-01T02:37:57.403Z,94449.00
2023-05-01T02:38:57.408Z,94447.00
2023-05-01T02:39:57.514Z,94447.00
2023-05-01T02:40:57.438Z,94447.00
2023-05-01T02:41:57.440Z,94449.00
2023-05-01T02:42:57.443Z,94447.00
2023-05-01T02:43:57.423Z,94449.00
2023-05-01T02:44:57.443Z,94445.00
2023-05-01T02:45:57.546Z,94445.00
2023-05-01T02:46:57.465Z,94443.00
2023-05-01T02:47:57.482Z,94445.00
2023-05-01T02:48:57.432Z,94443.00
2023-05-01T02:49:57.623Z,94441.00
2023-05-01T02:50:57.476Z,94441.00
2023-05-01T02:51:57.444Z,94441.00
2023-05-01T02:52:57.414Z,94441.00
2023-05-01T02:53:57.422Z,94441.00
2023-05-01T02:54:57.416Z,94441.00
2023-05-01T02:55:57.445Z,94439.00
2023-05-01T02:56:57.433Z,94443.00
2023-05-01T02:57:57.404Z,94439.00
2023-05-01T02:58:57.413Z,94441.00
2023-05-01T02:59:57.583Z,94439.00
2023-05-01T03:00:57.439Z,94439.00
2023-05-01T03:01:57.428Z,94437.00
2023-05-01T03:02:57.485Z,94437.00
2023-05-01T03:03:57.443Z,94433.00
2023-05-01T03:04:57.428Z,94433.00
2023-05-01T03:05:57.477Z,94433.00
2023-05-01T03:06:57.421Z,94433.00
2023-05-01T03:07:57.404Z,94432.00
2023-05-01T03:08:57.410Z,94432.00
2023-05-01T03:09:57.583Z,94428.00
2023-05-01T03:10:57.438Z,94430.00
2023-05-01T03:11:57.419Z,94428.00
2023-05-01T03:12:57.386Z,94428.00
2023-05-01T03:13:57.404Z,94430.00
2023-05-01T03:14:57.408Z,94430.00
2023-05-01T03:15:57.423Z,94430.00
2023-05-01T03:16:57.400Z,94428.00
2023-05-01T03:17:57.470Z,94428.00
2023-05-01T03:18:57.395Z,94426.00
2023-05-01T03:19:57.611Z,94426.00
2023-05-01T03:20:57.410Z,94426.00
2023-05-01T03:21:57.448Z,94424.00
2023-05-01T03:22:57.402Z,94420.00
2023-05-01T03:23:57.439Z,94422.00
2023-05-01T03:24:57.428Z,94420.00
2023-05-01T03:25:57.405Z,94418.00
2023-05-01T03:26:57.441Z,94424.00
2023-05-01T03:27:57.416Z,94420.00
2023-05-01T03:28:57.410Z,94426.00
2023-05-01T03:29:57.588Z,94422.00
2023-05-01T03:30:57.412Z,94420.00
2023-05-01T03:31:57.477Z,94418.00
2023-05-01T03:32:57.473Z,94418.00
2023-05-01T03:33:57.457Z,94416.00
2023-05-01T03:34:57.481Z,94416.00
2023-05-01T03:35:57.474Z,94416.00
2023-05-01T03:36:57.507Z,94414.00
2023-05-01T03:37:57.495Z,94416.00
2023-05-01T03:38:57.551Z,94414.00
2023-05-01T03:39:57.813Z,94416.00
2023-05-01T03:40:57.509Z,94418.00
2023-05-01T03:41:57.513Z,94416.00
2023-05-01T03:42:57.528Z,94412.00
2023-05-01T03:43:57.523Z,94412.00
2023-05-01T03:44:57.583Z,94410.00
2023-05-01T03:45:57.576Z,94410.00
2023-05-01T03:46:57.551Z,94410.00
2023-05-01T03:47:57.597Z,94410.00
2023-05-01T03:48:57.548Z,94410.00
2023-05-01T03:49:57.864Z,94410.00
2023-05-01T03:50:57.561Z,94410.00
2023-05-01T03:51:57.558Z,94406.00
2023-05-01T03:52:57.582Z,94406.00
2023-05-01T03:53:57.595Z,94406.00
2023-05-01T03:54:57.558Z,94406.00
2023-05-01T03:55:57.537Z,94410.00
2023-05-01T03:56:57.570Z,94408.00
2023-05-01T03:57:57.556Z,94406.00
2023-05-01T03:58:57.524Z,94412.00
2023-05-01T03:59:57.789Z,94410.00
2023-05-01T04:00:57.562Z,94408.00
2023-05-01T04:01:57.579Z,94410.00
2023-05-01T04:02:57.877Z,94406.00
2023-05-01T04:03:57.704Z,94406.00
2023-05-01T04:04:57.535Z,94406.00
2023-05-01T04:05:57.649Z,94406.00
2023-05-01T04:06:57.539Z,94406.00
2023-05-01T04:07:57.552Z,94402.00
2023-05-01T04:08:57.553Z,94402.00
2023-05-01T04:09:57.911Z,94402.00
2023-05-01T04:10:57.553Z,94400.00
2023-05-01T04:11:57.560Z,94400.00
2023-05-01T04:12:57.515Z,94400.00
2023-05-01T04:13:57.584Z,94404.00
2023-05-01T04:14:57.538Z,94398.00
2023-05-01T04:15:57.567Z,94398.00
2023-05-01T04:16:57.544Z,94400.00
2023-05-01T04:17:57.525Z,94398.00
2023-05-01T04:18:57.575Z,94400.00
2023-05-01T04:19:57.956Z,94400.00
2023-05-01T04:20:57.525Z,94398.00
2023-05-01T04:21:57.785Z,94402.00
2023-05-01T04:22:57.542Z,94400.00
2023-05-01T04:23:57.510Z,94398.00
2023-05-01T04:24:57.546Z,94396.00
2023-05-01T04:25:57.531Z,94396.00
2023-05-01T04:26:57.537Z,94398.00
2023-05-01T04:27:57.505Z,94398.00
2023-05-01T04:28:57.533Z,94398.00
2023-05-01T04:29:58.063Z,94398.00
2023-05-01T04:30:57.500Z,94400.00
2023-05-01T04:31:57.643Z,94398.00
2023-05-01T04:32:57.575Z,94400.00
2023-05-01T04:33:57.515Z,94400.00
2023-05-01T04:34:57.949Z,94400.00
2023-05-01T04:35:57.537Z,94400.00
2023-05-01T04:36:57.519Z,94400.00
2023-05-01T04:37:57.503Z,94398.00
2023-05-01T04:38:57.535Z,94398.00
2023-05-01T04:39:57.684Z,94398.00
2023-05-01T04:40:57.505Z,94396.00
2023-05-01T04:41:57.489Z,94396.00
2023-05-01T04:42:57.510Z,94396.00
2023-05-01T04:43:57.514Z,94396.00
2023-05-01T04:44:57.511Z,94396.00
2023-05-01T04:45:57.491Z,94396.00
2023-05-01T04:46:57.559Z,94396.00
2023-05-01T04:47:57.537Z,94396.00
2023-05-01T04:48:57.498Z,94400.00
2023-05-01T04:49:57.870Z,94396.00
2023-05-01T04:50:57.497Z,94400.00
2023-05-01T04:51:57.490Z,94400.00
2023-05-01T04:52:57.486Z,94400.00
2023-05-01T04:53:57.482Z,94400.00
2023-05-01T04:54:57.481Z,94398.00
2023-05-01T04:55:57.452Z,94398.00
2023-05-01T04:56:57.489Z,94400.00
2023-05-01T04:57:57.440Z,94398.00
2023-05-01T04:58:57.466Z,94400.00
2023-05-01T04:59:57.894Z,94400.00
2023-05-01T05:00:57.460Z,94398.00
2023-05-01T05:01:57.558Z,94404.00
2023-05-01T05:02:58.400Z,94404.00
2023-05-01T05:03:57.562Z,94406.00
2023-05-01T05:04:57.440Z,94404.00
2023-05-01T05:05:57.522Z,94404.00
2023-05-01T05:06:57.791Z,94404.00
2023-05-01T05:07:57.473Z,94400.00
2023-05-01T05:08:57.478Z,94402.00
2023-05-01T05:09:57.715Z,94402.00
2023-05-01T05:10:57.442Z,94404.00
2023-05-01T05:11:57.433Z,94404.00
2023-05-01T05:12:57.460Z,94402.00
2023-05-01T05:13:57.449Z,94402.00
2023-05-01T05:14:57.440Z,94400.00
2023-05-01T05:15:57.504Z,94400.00
2023-05-01T05:16:57.590Z,94402.00
2023-05-01T05:17:57.487Z,94402.00
2023-05-01T05:18:57.429Z,94404.00
2023-05-01T05:19:57.582Z,94404.00
2023-05-01T05:20:57.440Z,94404.00
2023-05-01T05:21:57.422Z,94404.00
2023-05-01T05:22:57.453Z,94404.00
2023-05-01T05:23:57.453Z,94404.00
2023-05-01T05:24:57.414Z,94402.00
2023-05-01T05:25:57.416Z,94404.00
2023-05-01T05:26:57.424Z,94404.00
2023-05-01T05:27:57.429Z,94404.00
2023-05-01T05:28:57.436Z,94406.00
2023-05-01T05:29:57.625Z,94406.00
2023-05-01T05:30:57.391Z,94404.00
2023-05-01T05:31:57.482Z,94402.00
2023-05-01T05:32:57.422Z,94404.00
2023-05-01T05:33:57.395Z,94404.00
2023-05-01T05:34:57.387Z,94402.00
2023-05-01T05:35:57.400Z,94402.00
2023-05-01T05:36:57.402Z,94400.00
2023-05-01T05:37:57.403Z,94400.00
2023-05-01T05:38:57.391Z,94400.00
2023-05-01T05:39:57.620Z,94404.00
2023-05-01T05:40:57.374Z,94400.00
2023-05-01T05:41:57.395Z,94404.00
2023-05-01T05:42:57.396Z,94404.00
2023-05-01T05:43:57.377Z,94402.00
2023-05-01T05:44:57.411Z,94406.00
2023-05-01T05:45:57.465Z,94404.00
2023-05-01T05:46:57.393Z,94406.00
2023-05-01T05:47:57.496Z,94404.00
2023-05-01T05:48:57.373Z,94404.00
2023-05-01T05:49:57.600Z,94404.00
2023-05-01T05:50:57.340Z,94404.00
2023-05-01T05:51:57.360Z,94404.00
2023-05-01T05:52:57.324Z,94404.00
2023-05-01T05:53:57.341Z,94406.00
2023-05-01T05:54:57.345Z,94404.00
2023-05-01T05:55:57.367Z,94406.00
2023-05-01T05:56:57.348Z,94406.00
2023-05-01T05:57:57.331Z,94406.00
2023-05-01T05:58:57.325Z,94406.00
2023-05-01T05:59:57.964Z,94406.00
2023-05-01T06:00:57.338Z,94404.00
2023-05-01T06:01:57.518Z,94406.00
2023-05-01T06:02:57.400Z,94404.00
2023-05-01T06:03:57.347Z,94406.00
2023-05-01T06:04:57.337Z,94408.00
2023-05-01T06:05:57.408Z,94410.00
2023-05-01T06:06:57.456Z,94410.00
2023-05-01T06:07:57.378Z,94408.00
2023-05-01T06:08:57.351Z,94408.00
2023-05-01T06:09:57.479Z,94408.00
2023-05-01T06:10:57.325Z,94408.00
2023-05-01T06:11:57.341Z,94406.00
2023-05-01T06:13:04.415Z,94408.00
2023-05-01T06:13:58.377Z,94406.00
2023-05-01T06:14:57.327Z,94406.00
2023-05-01T06:15:57.388Z,94404.00
2023-05-01T06:16:57.290Z,94408.00
2023-05-01T06:17:57.335Z,94404.00
2023-05-01T06:18:57.274Z,94404.00
2023-05-01T06:19:57.520Z,94402.00
2023-05-01T06:20:57.272Z,94404.00
2023-05-01T06:21:57.326Z,94402.00
2023-05-01T06:22:57.244Z,94402.00
2023-05-01T06:23:57.261Z,94402.00
2023-05-01T06:24:57.234Z,94400.00
2023-05-01T06:25:57.248Z,94398.00
2023-05-01T06:26:57.440Z,94400.00
2023-05-01T06:27:57.195Z,94396.00
2023-05-01T06:28:57.186Z,94396.00
2023-05-01T06:29:57.359Z,94396.00
2023-05-01T06:30:57.231Z,94392.00
2023-05-01T06:31:57.206Z,94392.00
2023-05-01T06:32:57.228Z,94390.00
2023-05-01T06:33:57.164Z,94388.00
2023-05-01T06:34:57.154Z,94388.00
2023-05-01T06:35:57.135Z,94388.00
2023-05-01T06:36:57.174Z,94392.00
2023-05-01T06:37:57.148Z,94390.00
2023-05-01T06:38:57.122Z,94390.00
2023-05-01T06:39:57.311Z,94392.00
2023-05-01T06:40:57.115Z,94392.00
2023-05-01T06:41:57.135Z,94392.00
2023-05-01T06:42:57.099Z,94394.00
2023-05-01T06:43:57.079Z,94394.00
2023-05-01T06:44:57.077Z,94394.00
2023-05-01T06:45:57.078Z,94392.00
2023-05-01T06:46:57.123Z,94390.00
2023-05-01T06:47:57.163Z,94390.00
2023-05-01T06:48:57.062Z,94394.00
2023-05-01T06:49:57.446Z,94390.00
2023-05-01T06:50:57.103Z,94392.00
2023-05-01T06:51:57.129Z,94390.00
2023-05-01T06:52:57.185Z,94394.00
2023-05-01T06:53:57.220Z,94392.00
2023-05-01T06:54:57.215Z,94392.00
2023-05-01T06:55:57.224Z,94390.00
2023-05-01T06:56:57.267Z,94392.00
2023-05-01T06:57:57.229Z,94390.00
2023-05-01T06:58:57.225Z,94388.00
2023-05-01T06:59:57.533Z,94388.00
2023-05-01T07:00:57.275Z,94386.00
2023-05-01T07:01:57.262Z,94388.00
2023-05-01T07:02:57.363Z,94386.00
2023-05-01T07:03:57.216Z,94386.00
2023-05-01T07:04:57.218Z,94388.00
2023-05-01T07:05:57.286Z,94384.00
2023-05-01T07:06:57.231Z,94388.00
2023-05-01T07:08:01.479Z,94388.00
2023-05-01T07:08:57.226Z,94390.00
2023-05-01T07:09:57.344Z,94390.00
2023-05-01T07:10:57.207Z,94390.00
2023-05-01T07:11:57.188Z,94392.00
2023-05-01T07:12:57.178Z,94390.00
2023-05-01T07:13:57.172Z,94390.00
2023-05-01T07:14:58.168Z,94392.00
2023-05-01T07:15:57.241Z,94390.00
2023-05-01T07:16:57.268Z,94390.00
2023-05-01T07:17:57.155Z,94394.00
2023-05-01T07:18:57.134Z,94392.00
2023-05-01T07:19:57.327Z,94390.00
2023-05-01T07:20:57.130Z,94394.00
2023-05-01T07:21:57.172Z,94390.00
2023-05-01T07:22:57.137Z,94390.00
2023-05-01T07:23:57.164Z,94392.00
2023-05-01T07:24:57.084Z,94394.00
2023-05-01T07:25:57.078Z,94394.00
2023-05-01T07:26:57.089Z,94390.00
2023-05-01T07:27:57.096Z,94392.00
2023-05-01T07:28:57.062Z,94392.00
2023-05-01T07:29:57.578Z,94394.00
2023-05-01T07:30:57.068Z,94390.00
2023-05-01T07:31:57.117Z,94390.00
2023-05-01T07:32:57.379Z,94388.00
2023-05-01T07:33:57.076Z,94388.00
2023-05-01T07:34:57.004Z,94382.00
2023-05-01T07:35:57.009Z,94384.00
2023-05-01T07:36:57.093Z,94384.00
2023-05-01T07:37:57.039Z,94381.00
2023-05-01T07:38:56.965Z,94379.00
2023-05-01T07:39:57.250Z,94379.00
2023-05-01T07:40:56.979Z,94379.00
2023-05-01T07:41:56.977Z,94379.00
2023-05-01T07:42:57.344Z,94377.00
2023-05-01T07:43:56.961Z,94379.00
2023-05-01T07:44:56.942Z,94381.00
2023-05-01T07:45:56.969Z,94379.00
2023-05-01T07:46:56.954Z,94381.00
2023-05-01T07:47:57.012Z,94377.00
2023-05-01T07:48:56.911Z,94379.00
2023-05-01T07:49:57.065Z,94381.00
2023-05-01T07:50:56.893Z,94379.00
2023-05-01T07:51:56.889Z,94381.00
2023-05-01T07:52:56.885Z,94381.00
2023-05-01T07:53:56.916Z,94381.00
2023-05-01T07:54:56.856Z,94382.00
2023-05-01T07:55:56.862Z,94382.00
2023-05-01T07:56:56.853Z,94381.00
2023-05-01T07:57:56.919Z,94381.00
2023-05-01T07:58:56.830Z,94379.00
2023-05-01T07:59:57.073Z,94381.00
2023-05-01T08:00:56.835Z,94379.00
2023-05-01T08:01:56.881Z,94377.00
2023-05-01T08:02:56.895Z,94384.00
2023-05-01T08:03:57.017Z,94382.00
2023-05-01T08:04:56.848Z,94381.00
2023-05-01T08:05:56.818Z,94381.00
2023-05-01T08:06:56.863Z,94379.00
2023-05-01T08:07:56.788Z,94377.00
2023-05-01T08:08:56.760Z,94381.00
2023-05-01T08:09:59.842Z,94379.00
2023-05-01T08:10:56.762Z,94379.00
2023-05-01T08:11:56.740Z,94381.00
2023-05-01T08:12:56.742Z,94381.00
2023-05-01T08:13:56.717Z,94381.00
2023-05-01T08:14:56.723Z,94377.00
2023-05-01T08:15:56.756Z,94377.00
2023-05-01T08:16:56.709Z,94375.00
2023-05-01T08:17:56.762Z,94377.00
2023-05-01T08:18:56.715Z,94379.00
2023-05-01T08:19:57.082Z,94375.00
2023-05-01T08:20:56.678Z,94377.00
2023-05-01T08:21:56.670Z,94381.00
2023-05-01T08:22:56.690Z,94377.00
2023-05-01T08:23:56.685Z,94379.00
2023-05-01T08:24:56.687Z,94377.00
2023-05-01T08:25:56.626Z,94381.00
2023-05-01T08:26:56.661Z,94381.00
2023-05-01T08:27:56.634Z,94379.00
2023-05-01T08:28:56.615Z,94379.00
2023-05-01T08:29:56.947Z,94379.00
2023-05-01T08:30:56.755Z,94379.00
2023-05-01T08:31:56.709Z,94377.00
2023-05-01T08:32:56.630Z,94375.00
2023-05-01T08:33:56.645Z,94367.00
2023-05-01T08:34:56.574Z,94365.00
2023-05-01T08:35:56.574Z,94363.00
2023-05-01T08:36:56.590Z,94361.00
2023-05-01T08:37:56.544Z,94361.00
2023-05-01T08:38:56.653Z,94363.00
2023-05-01T08:39:56.757Z,94359.00
2023-05-01T08:40:56.547Z,94365.00
2023-05-01T08:41:56.555Z,94361.00
2023-05-01T08:42:56.870Z,94359.00
2023-05-01T08:43:56.500Z,94361.00
2023-05-01T08:44:56.496Z,94359.00
2023-05-01T08:45:56.490Z,94359.00
2023-05-01T08:46:56.496Z,94357.00
2023-05-01T08:47:56.568Z,94357.00
2023-05-01T08:48:56.496Z,94355.00
2023-05-01T08:49:56.792Z,94357.00
2023-05-01T08:50:56.718Z,94357.00
2023-05-01T08:51:56.648Z,94355.00
2023-05-01T08:52:56.738Z,94353.00
2023-05-01T08:53:56.783Z,94353.00
2023-05-01T08:54:56.824Z,94351.00
2023-05-01T08:55:56.878Z,94349.00
2023-05-01T08:56:56.957Z,94353.00
2023-05-01T08:57:57.085Z,94353.00
2023-05-01T08:58:57.181Z,94353.00
2023-05-01T08:59:57.327Z,94351.00
2023-05-01T09:00:57.181Z,94351.00
2023-05-01T09:01:57.284Z,94351.00
2023-05-01T09:02:57.338Z,94349.00
2023-05-01T09:03:57.432Z,94353.00
2023-05-01T09:04:57.403Z,94349.00
2023-05-01T09:05:57.509Z,94349.00
2023-05-01T09:06:57.538Z,94349.00
2023-05-01T09:07:57.652Z,94345.00
2023-05-01T09:08:57.644Z,94343.00
2023-05-01T09:09:57.900Z,94345.00
2023-05-01T09:10:57.732Z,94343.00
2023-05-01T09:11:57.792Z,94341.00
2023-05-01T09:12:57.816Z,94341.00
2023-05-01T09:13:57.918Z,94343.00
2023-05-01T09:14:57.959Z,94341.00
2023-05-01T09:15:58.039Z,94341.00
2023-05-01T09:16:58.123Z,94339.00
2023-05-01T09:17:59.188Z,94339.00
2023-05-01T09:18:58.072Z,94337.00
2023-05-01T09:19:58.394Z,94337.00
2023-05-01T09:20:58.067Z,94337.00
2023-05-01T09:21:58.067Z,94337.00
2023-05-01T09:22:58.044Z,94336.00
2023-05-01T09:23:58.074Z,94334.00
2023-05-01T09:24:58.043Z,94334.00
2023-05-01T09:25:58.051Z,94337.00
2023-05-01T09:26:58.060Z,94336.00
2023-05-01T09:27:58.051Z,94332.00
2023-05-01T09:28:58.058Z,94330.00
2023-05-01T09:29:58.287Z,94330.00
2023-05-01T09:30:57.991Z,94328.00
2023-05-01T09:31:58.067Z,94330.00
2023-05-01T09:32:58.154Z,94326.00
2023-05-01T09:33:58.005Z,94326.00
2023-05-01T09:34:57.960Z,94324.00
2023-05-01T09:35:57.980Z,94322.00
2023-05-01T09:36:57.972Z,94320.00
2023-05-01T09:37:57.984Z,94320.00
2023-05-01T09:38:57.947Z,94320.00
2023-05-01T09:39:58.194Z,94318.00
2023-05-01T09:40:57.931Z,94318.00
2023-05-01T09:41:57.931Z,94316.00
2023-05-01T09:42:57.934Z,94316.00
2023-05-01T09:43:57.931Z,94314.00
2023-05-01T09:44:57.892Z,94318.00
2023-05-01T09:45:57.948Z,94316.00
2023-05-01T09:46:57.896Z,94314.00
2023-05-01T09:47:58.447Z,94312.00
2023-05-01T09:48:57.894Z,94314.00
2023-05-01T09:49:58.163Z,94312.00
2023-05-01T09:50:57.850Z,94308.00
2023-05-01T09:51:57.902Z,94306.00
2023-05-01T09:52:57.847Z,94308.00
2023-05-01T09:53:57.844Z,94304.00
2023-05-01T09:54:57.864Z,94304.00
2023-05-01T09:55:57.939Z,94300.00
2023-05-01T09:56:57.958Z,94302.00
2023-05-01T09:57:58.077Z,94298.00
2023-05-01T09:58:58.055Z,94298.00
2023-05-01T09:59:58.299Z,94300.00
2023-05-01T10:00:58.210Z,94298.00
2023-05-01T10:01:58.351Z,94296.00
2023-05-01T10:02:58.299Z,94296.00
2023-05-01T10:03:58.381Z,94292.00
2023-05-01T10:04:58.355Z,94294.00
2023-05-01T10:05:58.441Z,94294.00
2023-05-01T10:06:58.465Z,94292.00
2023-05-01T10:07:58.476Z,94290.00
2023-05-01T10:08:58.514Z,94287.00
2023-05-01T10:10:00.882Z,94289.00
2023-05-01T10:10:58.573Z,94285.00
2023-05-01T10:11:58.621Z,94283.00
2023-05-01T10:12:58.566Z,94283.00
2023-05-01T10:13:58.590Z,94281.00
2023-05-01T10:14:58.538Z,94279.00
2023-05-01T10:15:58.583Z,94279.00
2023-05-01T10:16:58.556Z,94279.00
2023-05-01T10:17:58.988Z,94279.00
2023-05-01T10:18:58.514Z,94279.00
2023-05-01T10:19:58.862Z,94279.00
2023-05-01T10:20:58.523Z,94281.00
2023-05-01T10:21:58.480Z,94279.00
2023-05-01T10:22:58.491Z,94279.00
2023-05-01T10:23:58.481Z,94279.00
2023-05-01T10:24:58.470Z,94279.00
2023-05-01T10:25:59.156Z,94277.00
2023-05-01T10:26:58.481Z,94273.00
2023-05-01T10:27:58.454Z,94277.00
2023-05-01T10:28:58.462Z,94275.00
2023-05-01T10:29:58.624Z,94275.00
2023-05-01T10:30:58.493Z,94273.00
2023-05-01T10:31:58.658Z,94271.00
2023-05-01T10:32:58.476Z,94269.00
2023-05-01T10:33:58.423Z,94269.00
2023-05-01T10:34:58.590Z,94269.00
2023-05-01T10:35:58.403Z,94269.00
2023-05-01T10:36:58.393Z,94267.00
2023-05-01T10:37:58.410Z,94265.00
2023-05-01T10:38:58.382Z,94265.00
2023-05-01T10:39:58.413Z,94265.00
2023-05-01T10:40:58.414Z,94261.00
2023-05-01T10:41:58.492Z,94261.00
2023-05-01T10:42:58.508Z,94259.00
2023-05-01T10:43:58.560Z,94259.00
2023-05-01T10:44:58.736Z,94257.00
2023-05-01T10:45:58.666Z,94257.00
2023-05-01T10:46:58.742Z,94255.00
2023-05-01T10:47:58.704Z,94253.00
2023-05-01T10:48:58.745Z,94249.00
2023-05-01T10:49:58.788Z,94253.00
2023-05-01T10:50:58.822Z,94253.00
2023-05-01T10:51:59.109Z,94255.00
2023-05-01T10:52:58.928Z,94251.00
2023-05-01T10:53:58.947Z,94249.00
2023-05-01T10:54:59.015Z,94245.00
2023-05-01T10:55:59.068Z,94243.00
2023-05-01T10:56:59.076Z,94245.00
2023-05-01T10:57:59.147Z,94241.00
2023-05-01T10:58:59.165Z,94241.00
2023-05-01T10:59:59.227Z,94237.00
2023-05-01T11:00:59.253Z,94234.00
2023-05-01T11:01:59.376Z,94235.00
2023-05-01T11:02:59.375Z,94234.00
2023-05-01T11:03:59.429Z,94234.00
2023-05-01T11:04:59.736Z,94232.00
2023-05-01T11:05:59.583Z,94232.00
2023-05-01T11:06:59.610Z,94230.00
2023-05-01T11:07:59.543Z,94230.00
2023-05-01T11:08:59.585Z,94228.00
2023-05-01T11:09:59.653Z,94228.00
2023-05-01T11:10:59.657Z,94232.00
2023-05-01T11:11:59.698Z,94230.00
2023-05-01T11:12:59.759Z,94230.00
2023-05-01T11:13:59.760Z,94228.00
2023-05-01T11:14:59.933Z,94226.00
2023-05-01T11:16:00.440Z,94226.00
2023-05-01T11:16:59.864Z,94226.00
2023-05-01T11:17:59.953Z,94226.00
2023-05-01T11:18:59.945Z,94226.00
2023-05-01T11:19:59.997Z,94224.00
2023-05-01T11:21:00.036Z,94226.00
2023-05-01T11:22:00.059Z,94224.00
2023-05-01T11:23:00.094Z,94222.00
2023-05-01T11:24:00.122Z,94222.00
2023-05-01T11:25:00.163Z,94222.00
2023-05-01T11:26:00.222Z,94222.00
2023-05-01T11:27:00.230Z,94220.00
2023-05-01T11:28:00.282Z,94220.00
2023-05-01T11:29:00.334Z,94218.00
2023-05-01T11:30:00.343Z,94216.00
2023-05-01T11:31:00.383Z,94216.00
2023-05-01T11:32:00.484Z,94214.00
2023-05-01T11:33:00.494Z,94212.00
2023-05-01T11:34:00.493Z,94212.00
2023-05-01T11:35:00.632Z,94212.00
2023-05-01T11:36:00.615Z,94210.00
2023-05-01T11:37:00.622Z,94210.00
2023-05-01T11:38:00.687Z,94210.00
2023-05-01T11:39:00.710Z,94208.00
2023-05-01T11:40:00.805Z,94208.00
2023-05-01T11:41:00.838Z,94206.00
2023-05-01T11:42:00.894Z,94210.00
2023-05-01T11:43:00.929Z,94208.00
2023-05-01T11:44:00.969Z,94206.00
2023-05-01T11:45:00.985Z,94204.00